AirNav   Air Wisconsin Up To $57,000 Bonus
 
 775 users online  

MO71 Block Air Village Airport
Holt, Missouri, USA

GOING TO HOLT?


FAA INFORMATION EFFECTIVE 09 SEPTEMBER 2021

Location

FAA Identifier: MO71
Lat/Long: 39-27-47.0000N 094-25-06.0000W
39-27.783333N 094-25.100000W
39.4630556,-94.4183333
(estimated)
Elevation: 1030 ft. / 314 m (estimated)
Variation: 04E (1995)
From city: 4 miles W of HOLT, MO
Time zone: UTC -5 (UTC -6 during Standard Time)
Zip code: 64048

Airport Operations

Airport use: Private use. Permission required prior to landing
Activation date: 01/2000
Control tower: no
ARTCC: KANSAS CITY CENTER
FSS: COLUMBIA FLIGHT SERVICE STATION
Attendance: IREG
Segmented circle: no

Airport Communications

WX AWOS-3T at GPH (9 nm SE): 120.275 (816-407-3399)
WX ASOS at MCI (17 nm SW): PHONE 816-329-2808
WX AWOS-3PT at EZZ (17 nm N): 121.05 (816-933-2124)

Nearby radio navigation aids

VOR radial/distance  VOR name  Freq  Var
MCIr049/18.2KANSAS CITY VORTAC113.2505E
ANXr322/25.8NAPOLEON VORTAC114.0007E
BQSr245/27.1BRAYMER VOR/DME111.2003E
STJr134/37.9ST JOSEPH VORTAC115.5008E

 
NDB name  Hdg/Dist  Freq  Var  ID
AMAZON134/33.923304EAZN .- --.. -.

Airport Services

Runway Information

Runway 17/35

Dimensions: 3300 x 100 ft. / 1006 x 30 m
Surface: turf
RUNWAY 17  RUNWAY 35
Traffic pattern: leftleft

Runway 10/28

Dimensions: 2800 x 100 ft. / 853 x 30 m
Surface: turf
RUNWAY 10  RUNWAY 28
Traffic pattern: leftleft

Runway 16/34

Dimensions: 1500 x 100 ft. / 457 x 30 m
Surface: turf
RUNWAY 16  RUNWAY 34
Traffic pattern: leftleft

Airport Ownership and Management from official FAA records

Ownership: Privately-owned
Owner: SUSAN BLOCK MOORE
2639 N. RIVERSIDE DR. #1103
POMPANO BEACH, FL 33062
Phone (816) 729-7588
Manager: SUSAN BLOCK MOORE
4906 WILSON DRIVE
OSAGE BEACH, MO 65065
Phone 816-729-7588

Airport Operational Statistics

Aircraft based on the field: 4
Single engine airplanes: 4
    

Additional Remarks

FOR CD CTC KANSAS CITY APCH AT 816-329-2710.

Instrument Procedures

There are no published instrument procedures at MO71.

Some nearby airports with instrument procedures:

KGPH - Midwest National Air Center Airport (9 nm SE)
3EX - Excelsior Springs Memorial Airport (13 nm SE)
KMCI - Kansas City International Airport (17 nm SW)
KEZZ - Cameron Memorial Airport (17 nm N)
KMKC - Charles B Wheeler Downtown Airport (22 nm S)
 
Loc | Ops | Rwys | IFR | FBO | Links
Com | Nav | Svcs | Stats | Notes
Area around MO71 (Block Air Village Airport)
 
Road maps at: MapQuest Bing Google
 
Aerial photo
No photo
 
Sectional chart

 
Airport distance calculator
Flying to Block Air Village Airport? Find the distance to fly.

From to MO71

Sunrise and sunset
Times for 23-Sep-2021
 Local
(UTC-5)
 Zulu
(UTC)
Morning civil twilight06:4011:40
Sunrise07:0712:07
Sunset19:1300:13
Evening civil twilight19:4000:40

Current date and time
Zulu (UTC)  24-Sep-2021 04:44:29
Local (UTC-5)  23-Sep-2021 23:44:29
 
METAR
KGPH 
9nm SE 
240435Z AUTO 00000KT 10SM CLR 13/11 A3001 RMK AO2
KEZZ 
17nm N 
240435Z AUTO 17007KT 10SM CLR 15/10 A3001 RMK AO2 T01530096
KMCI 
18nm SW 
240353Z 17010KT 10SM CLR 14/09 A3000 RMK AO2 SLP153 T01390094
TAF
KMCI 
18nm SW 
231726Z 2318/2418 16007KT P6SM SKC FM240800 19008KT P6SM SKC WS020/22035KT FM241400 21012G20KT P6SM SCT250
NOTAMs
Click for the latest NOTAMs
NOTAMs are issued by the DoD/FAA and will open in a separate window not controlled by AirNav.

 

 
 

Would you like to see your business listed on this page?

 If your business provides an interesting product or service to pilots, flight crews, aircraft, or users of the Block Air Village Airport, you should consider listing it here.  To start the listing process, click on the button below
 
Add a business
 

Other Pages about Block Air Village Airport

Update a link
 
Copyright © AirNav, LLC. All rights reserved. Privacy Policy  Contact